Time;durP1;ratioP1;P1;durP2;ratioP2;P2;SDS_P1;SDS_P2;PMS_P1;PMS_P2;Temp;Humidity;BMP_temperature;BMP_pressure;BME280_temperature;BME280_humidity;BME280_pressure;Samples;Min_cycle;Max_cycle;Signal;HPM_P1;HPM_P2
2021/04/07 00:01:28;;;;;;;;;7.00;7.00;;;;;10.90;80.11;100176.47;5065041;28;10977;-80
2021/04/07 00:04:23;;;;;;;;;8.50;8.50;;;;;10.98;79.84;100170.81;5054012;28;10791;-81
2021/04/07 00:07:19;;;;;;;;;5.50;5.50;;;;;10.88;80.10;100160.19;5053146;28;11032;-81
2021/04/07 00:10:17;;;;;;;;;4.50;4.50;;;;;10.78;80.63;100161.47;5052238;28;10679;-81
2021/04/07 00:13:14;;;;;;;;;4.00;4.00;;;;;10.89;80.60;100147.16;5054228;28;11491;-81
2021/04/07 00:16:10;;;;;;;;;4.50;4.50;;;;;10.98;80.42;100158.94;5053806;28;10748;-82
2021/04/07 00:19:09;;;;;;;;;4.00;4.00;;;;;10.99;80.73;100149.50;5053588;28;10731;-82
2021/04/07 00:21:58;;;;;;;;;7.25;7.25;;;;;10.96;80.69;100139.91;5054282;28;10624;-81
2021/04/07 00:24:54;;;;;;;;;6.25;6.25;;;;;10.88;81.23;100124.22;5053086;28;10731;-81
2021/04/07 00:28:01;;;;;;;;;6.75;6.75;;;;;10.88;81.43;100099.34;5053768;28;11254;-82
2021/04/07 00:30:58;;;;;;;;;9.25;9.25;;;;;10.88;81.67;100057.84;5052979;28;10612;-82
2021/04/07 00:33:54;;;;;;;;;7.50;7.50;;;;;10.99;81.17;100038.81;5053918;28;10884;-82
2021/04/07 00:36:49;;;;;;;;;5.75;5.75;;;;;10.84;81.64;100052.22;5054486;28;10793;-83
2021/04/07 00:39:45;;;;;;;;;2.25;2.25;;;;;10.95;81.08;100051.72;5052369;28;10979;-81
2021/04/07 00:42:43;;;;;;;;;7.00;6.25;;;;;10.91;81.11;100023.97;5051506;28;10539;-82
2021/04/07 00:45:39;;;;;;;;;6.50;6.00;;;;;10.92;81.51;100003.44;5053575;28;10491;-80
2021/04/07 00:48:34;;;;;;;;;3.25;2.75;;;;;10.95;81.54;100016.56;5054894;28;10692;-80
2021/04/07 00:51:30;;;;;;;;;4.00;4.00;;;;;10.82;81.87;99985.38;5032938;28;10641;-79
2021/04/07 00:54:26;;;;;;;;;3.50;3.50;;;;;10.65;82.66;99976.53;5033046;28;10709;-79
2021/04/07 00:57:23;;;;;;;;;6.25;6.25;;;;;10.84;81.96;99988.59;5047152;28;10695;-79
2021/04/07 01:00:20;;;;;;;;;5.75;5.75;;;;;10.84;82.04;99990.56;5054809;28;10629;-79
2021/04/07 01:03:16;;;;;;;;;2.50;2.50;;;;;10.86;82.21;99988.22;5058499;28;10605;-79
2021/04/07 01:06:12;;;;;;;;;5.50;5.50;;;;;10.97;81.61;99996.88;5056392;28;10544;-77
2021/04/07 01:08:59;;;;;;;;;4.00;4.00;;;;;11.04;81.38;99994.28;5057344;28;10671;-79
2021/04/07 01:11:54;;;;;;;;;6.00;4.00;;;;;11.02;81.58;99988.31;5056847;28;10753;-80
2021/04/07 01:14:51;;;;;;;;;6.00;6.00;;;;;11.11;81.42;99992.53;5056700;28;10448;-79
2021/04/07 01:17:27;;;;;;;;;8.00;6.00;;;;;11.14;80.50;99993.81;5056154;28;10641;-80
2021/04/07 01:20:24;;;;;;;;;4.75;4.75;;;;;11.08;80.79;99973.06;5056094;28;10553;-81
2021/04/07 01:23:20;;;;;;;;;6.25;6.25;;;;;11.07;80.93;99957.63;5058037;28;10657;-80
2021/04/07 01:26:16;;;;;;;;;7.00;7.00;;;;;11.01;81.41;99940.47;5058120;28;10588;-81
2021/04/07 01:29:12;;;;;;;;;8.75;8.75;;;;;11.12;80.64;99946.31;5057392;28;10886;-81
2021/04/07 01:32:08;;;;;;;;;8.25;8.25;;;;;11.19;80.40;99951.22;5058901;28;10847;-80
2021/04/07 01:35:05;;;;;;;;;4.00;4.00;;;;;11.13;80.72;99951.50;5056682;28;10759;-81
2021/04/07 01:38:00;;;;;;;;;5.00;5.00;;;;;10.99;81.18;99955.81;5056454;28;10690;-81
2021/04/07 01:40:28;;;;;;;;;3.75;3.75;;;;;11.03;80.89;99942.88;5056707;28;10518;-79
2021/04/07 01:43:25;;;;;;;;;2.00;2.00;;;;;11.03;81.19;99956.72;5054013;28;10562;-80
2021/04/07 01:46:02;;;;;;;;;1.50;1.50;;;;;11.12;81.07;99954.63;5056708;28;10392;-79
2021/04/07 01:48:45;;;;;;;;;3.00;3.00;;;;;11.14;80.95;99957.84;5055367;28;10396;-80
2021/04/07 01:51:41;;;;;;;;;2.25;2.25;;;;;11.04;81.44;99966.63;5056312;28;11193;-81
2021/04/07 01:54:37;;;;;;;;;2.00;2.00;;;;;11.00;80.99;99972.06;5055212;28;10549;-82
2021/04/07 01:57:33;;;;;;;;;1.00;1.00;;;;;10.95;81.56;99979.78;5057277;28;10307;-82
2021/04/07 02:00:28;;;;;;;;;3.75;3.75;;;;;10.99;81.61;99973.22;5054725;28;10483;-81
2021/04/07 02:03:24;;;;;;;;;2.00;2.00;;;;;11.04;81.68;99964.69;5056174;28;10476;-81
2021/04/07 02:06:20;;;;;;;;;0.75;0.75;;;;;11.02;81.69;99950.38;5039838;28;10402;-81
2021/04/07 02:09:17;;;;;;;;;1.50;1.50;;;;;10.97;81.78;99931.28;5036359;28;10355;-80
2021/04/07 02:12:12;;;;;;;;;3.00;3.00;;;;;11.11;81.53;99933.63;5034876;28;10658;-80
2021/04/07 02:15:15;;;;;;;;;2.00;2.00;;;;;11.09;81.54;99942.28;5043416;28;10609;-81
2021/04/07 02:18:10;;;;;;;;;2.50;2.50;;;;;11.13;81.78;99936.84;5055220;28;10513;-80
2021/04/07 02:20:38;;;;;;;;;2.00;2.00;;;;;11.10;81.88;99927.28;5055625;28;10520;-80
2021/04/07 02:23:35;;;;;;;;;1.00;1.00;;;;;11.15;81.85;99929.00;5055865;28;10463;-80
2021/04/07 02:26:32;;;;;;;;;1.75;1.75;;;;;11.22;81.65;99914.56;5068512;28;10648;-80
2021/04/07 02:29:28;;;;;;;;;1.50;1.50;;;;;11.22;81.66;99904.28;5050138;28;10561;-78
2021/04/07 02:32:25;;;;;;;;;1.00;1.00;;;;;11.18;81.69;99906.13;5035068;28;10483;-79
2021/04/07 02:35:20;;;;;;;;;4.00;4.00;;;;;11.26;82.20;99894.09;5037009;28;10324;-79
2021/04/07 02:37:47;;;;;;;;;6.00;6.00;;;;;11.29;81.84;99892.63;5035228;28;10558;-78
2021/04/07 02:40:43;;;;;;;;;1.75;1.75;;;;;11.17;81.94;99896.22;5051442;28;10302;-78
2021/04/07 02:43:38;;;;;;;;;4.00;4.00;;;;;11.31;82.04;99890.28;5035103;28;10548;-79
2021/04/07 02:46:34;;;;;;;;;3.00;3.00;;;;;11.26;82.05;99883.03;5040627;28;10493;-79
2021/04/07 02:49:36;;;;;;;;;1.00;1.00;;;;;11.29;82.19;99874.03;5038592;28;10331;-79
2021/04/07 02:52:32;;;;;;;;;3.00;3.00;;;;;11.26;82.53;99858.13;5052988;28;10354;-80
2021/04/07 02:55:27;;;;;;;;;3.00;3.00;;;;;11.38;81.88;99843.41;5055728;28;10543;-79
2021/04/07 02:57:57;;;;;;;;;3.25;3.25;;;;;11.35;82.47;99820.03;5043996;28;10481;-80
2021/04/07 03:00:52;;;;;;;;;4.00;4.00;;;;;11.02;83.82;99806.50;5050882;28;10300;-80
2021/04/07 03:03:48;;;;;;;;;4.00;4.00;;;;;11.02;84.02;99794.63;5053272;28;10611;-81
2021/04/07 03:06:44;;;;;;;;;3.00;3.00;;;;;10.95;84.34;99750.97;5056328;28;10454;-80
2021/04/07 03:09:39;;;;;;;;;3.00;3.00;;;;;10.88;84.76;99736.97;5054184;28;10457;-80
2021/04/07 03:12:35;;;;;;;;;3.00;3.00;;;;;10.73;85.65;99732.22;5054655;28;10623;-79
2021/04/07 03:15:31;;;;;;;;;3.00;3.00;;;;;10.99;85.14;99737.25;5056990;28;10696;-78
2021/04/07 03:18:26;;;;;;;;;4.25;4.00;;;;;10.78;85.76;99743.84;5053165;28;11423;-79
2021/04/07 03:21:22;;;;;;;;;4.00;4.00;;;;;11.00;85.27;99744.41;5053922;28;11545;-80
2021/04/07 03:24:17;;;;;;;;;5.25;5.25;;;;;11.14;84.80;99747.53;5052006;28;10676;-80
2021/04/07 03:26:48;;;;;;;;;19.50;18.50;;;;;11.07;84.80;99747.34;5051267;28;10704;-79
2021/04/07 03:29:43;;;;;;;;;8.50;8.50;;;;;10.98;84.75;99743.97;5047446;28;11521;-81
2021/04/07 03:32:25;;;;;;;;;8.25;8.25;;;;;10.91;85.29;99741.00;5054466;28;10774;-79
2021/04/07 03:35:22;;;;;;;;;5.50;5.50;;;;;11.19;84.30;99744.47;5052719;28;10678;-80
2021/04/07 03:37:49;;;;;;;;;13.25;13.25;;;;;11.13;84.33;99741.19;5054018;28;10391;-80
2021/04/07 03:40:45;;;;;;;;;24.00;21.00;;;;;11.05;85.15;99741.38;5040637;28;10749;-79
2021/04/07 03:43:41;;;;;;;;;7.75;6.75;;;;;11.31;84.07;99730.53;5042377;28;10949;-78
2021/04/07 03:46:27;;;;;;;;;4.50;4.50;;;;;11.45;83.75;99727.31;5038393;28;10711;-79
2021/04/07 03:49:09;;;;;;;;;3.50;3.50;;;;;11.44;83.95;99725.72;5053977;28;10565;-78
2021/04/07 03:52:04;;;;;;;;;7.00;7.00;;;;;11.53;83.75;99734.63;5051877;28;10546;-78
2021/04/07 03:54:33;;;;;;;;;7.75;7.75;;;;;11.57;83.39;99752.09;5057432;28;10384;-79
2021/04/07 03:57:01;;;;;;;;;9.50;9.50;;;;;11.66;83.08;99761.03;5053486;28;10366;-79
2021/04/07 03:59:28;;;;;;;;;10.00;10.00;;;;;11.68;82.41;99782.84;5053654;28;10492;-79
2021/04/07 04:02:09;;;;;;;;;8.50;8.50;;;;;11.82;81.99;99783.19;5053100;28;10670;-79
2021/04/07 04:04:54;;;;;;;;;10.00;10.00;;;;;11.78;82.59;99784.25;5052982;28;10652;-79
2021/04/07 04:07:31;;;;;;;;;9.75;9.75;;;;;11.85;82.08;99765.84;5055812;28;10485;-78
2021/04/07 04:09:58;;;;;;;;;9.50;9.50;;;;;11.88;82.08;99776.19;5053915;28;11092;-79
2021/04/07 04:12:24;;;;;;;;;10.75;10.75;;;;;11.99;81.78;99773.66;5054988;28;10391;-79
2021/04/07 04:15:21;;;;;;;;;9.00;9.00;;;;;12.00;80.89;99775.28;5043318;28;10668;-78
2021/04/07 04:18:17;;;;;;;;;8.00;8.00;;;;;11.99;81.77;99773.66;5052881;28;10665;-79
2021/04/07 04:20:44;;;;;;;;;7.25;7.25;;;;;12.05;81.27;99765.88;5033317;28;10406;-79
2021/04/07 04:23:15;;;;;;;;;15.50;15.50;;;;;12.11;81.10;99770.75;5054424;28;10319;-80
2021/04/07 04:26:11;;;;;;;;;14.75;14.75;;;;;12.07;81.59;99774.63;5052770;28;10563;-79
2021/04/07 04:29:06;;;;;;;;;13.00;13.00;;;;;12.15;81.27;99765.31;5052983;28;10767;-80
2021/04/07 04:32:03;;;;;;;;;14.75;14.75;;;;;12.18;81.23;99762.59;5051701;28;10544;-81
2021/04/07 04:34:58;;;;;;;;;9.00;9.00;;;;;12.25;80.82;99754.44;5048100;28;10489;-76
2021/04/07 04:37:46;;;;;;;;;13.25;13.25;;;;;12.31;80.82;99754.16;5045851;28;10381;-75
2021/04/07 04:40:15;;;;;;;;;14.50;14.00;;;;;12.39;80.62;99758.66;5055964;28;10431;-75
2021/04/07 04:42:42;;;;;;;;;11.00;11.00;;;;;12.44;80.65;99758.38;5054487;28;10337;-75
2021/04/07 04:45:11;;;;;;;;;13.75;13.75;;;;;12.42;80.52;99753.19;5053223;28;10342;-75
2021/04/07 04:47:39;;;;;;;;;13.50;13.50;;;;;12.52;80.10;99760.91;5053259;28;10446;-76
2021/04/07 04:50:08;;;;;;;;;12.25;12.25;;;;;12.51;80.53;99751.00;5033523;28;10348;-75
2021/04/07 04:52:38;;;;;;;;;11.25;11.25;;;;;12.57;79.71;99747.91;5053014;28;10361;-75
2021/04/07 04:55:34;;;;;;;;;14.75;14.25;;;;;12.63;79.85;99738.94;5048722;28;10393;-75
2021/04/07 04:58:31;;;;;;;;;15.00;15.00;;;;;12.43;80.21;99740.94;5036364;28;10587;-75
2021/04/07 05:01:14;;;;;;;;;12.75;12.75;;;;;12.68;79.86;99737.84;5053086;28;10601;-75
2021/04/07 05:03:42;;;;;;;;;14.00;13.25;;;;;12.81;79.38;99739.28;5051963;28;10127;-76
2021/04/07 05:06:10;;;;;;;;;8.75;8.75;;;;;12.96;79.51;99737.56;5051954;28;10095;-77
2021/04/07 05:08:51;;;;;;;;;11.75;11.75;;;;;12.99;79.07;99734.03;5056706;28;10111;-76
2021/04/07 05:11:43;;;;;;;;;11.50;11.50;;;;;12.97;78.54;99742.72;5050611;28;9952;-76
2021/04/07 05:14:11;;;;;;;;;9.25;9.25;;;;;13.03;78.26;99741.25;5035161;28;10219;-73
2021/04/07 05:16:53;;;;;;;;;14.75;14.75;;;;;13.11;78.13;99749.69;5051261;28;10110;-73
2021/04/07 05:19:20;;;;;;;;;14.00;14.00;;;;;13.19;78.10;99743.06;5051913;28;10033;-73
2021/04/07 05:21:48;;;;;;;;;14.75;13.75;;;;;13.18;78.51;99749.81;5051487;28;10079;-73
2021/04/07 05:24:44;;;;;;;;;16.50;13.25;;;;;13.31;77.65;99742.91;5053228;28;10022;-76
2021/04/07 05:27:40;;;;;;;;;11.50;11.50;;;;;13.34;76.72;99739.38;5052275;28;10089;-77
2021/04/07 05:30:58;;;;;;;;;15.50;12.75;;;;;13.23;76.84;99753.09;5052191;28;10836;-77
2021/04/07 05:33:36;;;;;;;;;15.75;15.75;;;;;13.44;76.43;99747.09;5052536;28;10028;-76
2021/04/07 05:36:35;;;;;;;;;13.00;11.50;;;;;13.46;77.04;99735.63;5052237;28;9996;-77
2021/04/07 05:39:03;;;;;;;;;13.25;11.25;;;;;13.52;76.63;99737.72;5059450;28;10186;-77
2021/04/07 05:42:00;;;;;;;;;10.50;10.50;;;;;13.59;75.86;99728.69;5051849;28;10047;-77
2021/04/07 05:44:56;;;;;;;;;11.00;11.00;;;;;13.44;76.49;99716.56;5052052;28;10039;-76
2021/04/07 05:47:27;;;;;;;;;11.00;11.00;;;;;13.60;76.27;99719.16;5054904;28;9927;-76
2021/04/07 05:49:56;;;;;;;;;12.50;12.50;;;;;13.68;75.99;99717.28;5055499;28;9862;-78
2021/04/07 05:52:52;;;;;;;;;13.00;13.00;;;;;13.64;76.58;99708.91;5055667;28;9782;-75
2021/04/07 05:55:53;;;;;;;;;9.00;9.00;;;;;13.32;77.12;99694.53;5055558;28;9929;-78
2021/04/07 05:58:49;;;;;;;;;8.50;8.50;;;;;13.68;76.51;99698.66;5054456;28;9755;-77
2021/04/07 06:01:36;;;;;;;;;9.25;9.25;;;;;13.22;77.33;99706.28;5055198;28;9855;-76
2021/04/07 06:04:04;;;;;;;;;7.50;7.50;;;;;13.58;76.40;99702.09;5056410;28;9923;-76
2021/04/07 06:07:01;;;;;;;;;11.00;11.00;;;;;13.70;76.14;99695.47;5054225;28;10512;-77
2021/04/07 06:09:28;;;;;;;;;13.25;11.50;;;;;13.59;75.98;99695.34;5056458;28;9931;-76
2021/04/07 06:11:57;;;;;;;;;10.50;10.50;;;;;13.95;75.82;99695.81;5056496;28;9698;-77
2021/04/07 06:14:52;;;;;;;;;10.50;10.50;;;;;13.84;76.14;99706.81;5055395;28;9865;-76
2021/04/07 06:17:56;;;;;;;;;9.00;8.25;;;;;13.98;75.68;99683.97;5055403;28;9682;-76
2021/04/07 06:20:51;;;;;;;;;9.25;9.25;;;;;14.27;74.28;99696.22;5054929;28;9771;-76
2021/04/07 06:23:20;;;;;;;;;12.75;12.75;;;;;14.51;73.05;99684.59;5053000;28;9775;-76
2021/04/07 06:26:06;;;;;;;;;12.25;12.25;;;;;14.70;69.72;99678.00;5053805;28;9563;-76
2021/04/07 06:29:01;;;;;;;;;9.00;9.00;;;;;14.41;70.47;99668.53;5055510;28;10285;-76
2021/04/07 06:31:57;;;;;;;;;11.25;11.25;;;;;14.64;70.10;99673.97;5054411;28;9587;-76
2021/04/07 06:34:25;;;;;;;;;13.75;13.75;;;;;14.34;71.47;99672.06;5054508;28;9464;-76
2021/04/07 06:37:21;;;;;;;;;13.00;13.00;;;;;14.83;69.44;99672.97;5062768;28;9597;-76
2021/04/07 06:39:48;;;;;;;;;3.00;3.00;;;;;14.10;70.30;99678.13;5054837;28;10330;-75
2021/04/07 06:42:44;;;;;;;;;9.25;9.25;;;;;14.38;70.00;99672.09;5055036;28;9393;-77
2021/04/07 06:45:12;;;;;;;;;10.75;10.75;;;;;14.22;70.11;99674.31;5054799;28;9552;-76
2021/04/07 06:48:09;;;;;;;;;10.75;10.75;;;;;14.42;69.28;99657.06;5054389;28;9605;-77
2021/04/07 06:51:05;;;;;;;;;12.50;12.50;;;;;14.21;71.25;99656.03;5055586;28;9787;-75
2021/04/07 06:53:33;;;;;;;;;15.00;14.00;;;;;14.65;69.92;99650.56;5054850;28;10409;-75
2021/04/07 06:56:07;;;;;;;;;12.50;12.50;;;;;14.43;70.03;99652.31;5053932;28;9567;-77
2021/04/07 06:59:03;;;;;;;;;10.25;10.25;;;;;14.68;69.77;99656.13;5053635;28;9697;-77
2021/04/07 07:01:39;;;;;;;;;14.50;14.50;;;;;14.45;70.21;99658.28;5054560;28;9615;-78
2021/04/07 07:04:09;;;;;;;;;12.50;11.00;;;;;15.05;68.72;99646.91;5054357;28;9559;-77
2021/04/07 07:06:36;;;;;;;;;11.25;11.25;;;;;15.02;67.58;99650.44;5054336;28;9536;-76
2021/04/07 07:09:19;;;;;;;;;10.25;10.25;;;;;15.05;67.91;99660.84;5054205;28;9475;-76
2021/04/07 07:11:48;;;;;;;;;12.00;12.00;;;;;14.69;69.08;99645.81;5054362;28;9487;-77
2021/04/07 07:14:18;;;;;;;;;10.33;10.33;;;;;14.75;67.82;99644.28;5054264;28;9562;-75
2021/04/07 07:16:53;;;;;;;;;8.75;8.75;;;;;14.31;69.17;99631.09;5053694;28;9405;-75
2021/04/07 07:19:32;;;;;;;;;14.25;14.25;;;;;14.82;68.97;99633.22;5053848;28;9437;-75
2021/04/07 07:22:01;;;;;;;;;13.67;13.67;;;;;14.89;69.11;99626.91;5053979;28;9613;-75
2021/04/07 07:24:30;;;;;;;;;20.00;19.75;;;;;14.62;69.36;99624.28;5052411;28;9398;-75
2021/04/07 07:27:02;;;;;;;;;14.33;13.33;;;;;15.20;67.77;99631.91;5053919;28;9629;-76
2021/04/07 07:29:54;;;;;;;;;14.25;14.25;;;;;15.34;67.27;99627.63;5053616;28;10025;-77
2021/04/07 07:32:43;;;;;;;;;18.75;16.00;;;;;15.54;67.24;99628.91;5053505;28;9397;-76
2021/04/07 07:35:14;;;;;;;;;13.00;13.00;;;;;15.43;66.67;99620.50;5052473;28;9463;-77
2021/04/07 07:37:46;;;;;;;;;15.33;15.33;;;;;15.36;66.31;99642.75;5051182;28;9382;-78
2021/04/07 07:40:24;;;;;;;;;11.33;11.33;;;;;14.87;66.96;99662.66;5036110;28;9288;-76
2021/04/07 07:42:54;;;;;;;;;13.33;13.33;;;;;14.61;68.08;99667.19;5043096;28;9307;-74
2021/04/07 07:45:50;;;;;;;;;15.00;14.00;;;;;14.95;68.20;99670.72;5053376;28;9167;-77
2021/04/07 07:48:47;;;;;;;;;12.75;11.75;;;;;15.05;66.92;99677.53;5053050;28;10164;-75
2021/04/07 07:51:45;;;;;;;;;12.00;12.00;;;;;14.80;67.12;99662.59;5051921;28;9518;-77
2021/04/07 07:54:40;;;;;;;;;16.00;16.00;;;;;14.85;67.29;99662.25;5052380;28;9405;-77
2021/04/07 07:57:11;;;;;;;;;12.33;12.33;;;;;14.80;67.67;99673.72;5053027;28;9397;-76
2021/04/07 08:00:08;;;;;;;;;12.67;12.67;;;;;14.62;68.26;99674.38;5053025;28;9333;-77
2021/04/07 08:02:38;;;;;;;;;13.33;10.33;;;;;14.80;67.79;99674.56;5053341;28;9436;-75
2021/04/07 08:05:28;;;;;;;;;14.33;14.00;;;;;14.58;68.75;99675.53;5044609;28;9325;-75
2021/04/07 08:08:24;;;;;;;;;14.67;14.67;;;;;14.75;68.30;99677.69;5054179;28;9315;-75
2021/04/07 08:11:19;;;;;;;;;13.00;12.00;;;;;14.92;67.90;99674.25;5043627;28;9393;-75
2021/04/07 08:14:17;;;;;;;;;8.33;8.33;;;;;14.83;68.33;99671.00;5053235;28;9752;-75
2021/04/07 08:17:13;;;;;;;;;12.75;12.75;;;;;14.58;68.72;99656.84;5032616;28;9484;-75
2021/04/07 08:20:09;;;;;;;;;12.00;12.00;;;;;14.88;67.92;99658.72;5044992;28;9687;-77
2021/04/07 08:22:38;;;;;;;;;12.00;10.50;;;;;14.72;69.01;99670.91;5053961;28;9599;-76
2021/04/07 08:25:36;;;;;;;;;14.25;14.25;;;;;14.62;69.06;99657.66;5031730;28;9533;-76
2021/04/07 08:28:32;;;;;;;;;12.25;12.25;;;;;15.00;67.67;99648.06;5033842;28;9762;-77
2021/04/07 08:31:28;;;;;;;;;10.75;10.75;;;;;14.96;67.90;99652.81;5049329;28;9514;-76
2021/04/07 08:33:59;;;;;;;;;12.67;12.67;;;;;14.90;67.92;99648.00;5052920;28;9478;-75
2021/04/07 08:36:29;;;;;;;;;11.33;11.33;;;;;15.06;67.20;99650.50;5049856;28;9431;-76
2021/04/07 08:39:25;;;;;;;;;10.67;10.67;;;;;14.44;69.55;99648.34;5050326;28;10225;-75
2021/04/07 08:41:52;;;;;;;;;13.00;11.67;;;;;14.78;68.74;99646.28;5051868;28;9472;-73
2021/04/07 08:44:49;;;;;;;;;13.75;12.50;;;;;14.94;67.98;99644.03;5049567;28;9234;-72
2021/04/07 08:48:02;;;;;;;;;11.00;10.00;;;;;15.12;67.44;99655.31;5051208;28;9471;-73
2021/04/07 08:50:30;;;;;;;;;15.00;15.00;;;;;14.96;67.93;99638.09;5050664;28;9308;-72
2021/04/07 08:52:58;;;;;;;;;13.00;13.00;;;;;15.14;68.06;99639.03;5049131;28;10147;-72
2021/04/07 08:55:27;;;;;;;;;25.00;23.75;;;;;15.06;67.64;99647.72;5049478;28;9548;-73
2021/04/07 08:58:11;;;;;;;;;12.67;12.67;;;;;15.16;67.69;99638.63;5050280;28;9934;-72
2021/04/07 09:00:40;;;;;;;;;11.33;11.33;;;;;15.20;67.23;99636.69;5049850;28;9260;-73
2021/04/07 09:03:42;;;;;;;;;13.33;13.33;;;;;15.35;67.33;99645.94;5039566;28;9348;-72
2021/04/07 09:06:13;;;;;;;;;12.00;12.00;;;;;15.16;67.99;99647.78;5053136;28;9429;-72
2021/04/07 09:08:55;;;;;;;;;12.33;12.33;;;;;15.08;68.78;99654.47;5052550;28;9351;-74
2021/04/07 09:11:30;;;;;;;;;9.67;9.67;;;;;15.17;68.37;99654.16;5059875;28;9348;-72
2021/04/07 09:14:29;;;;;;;;;11.00;11.00;;;;;15.24;69.38;99663.34;5052812;28;9362;-72
2021/04/07 09:17:25;;;;;;;;;23.25;19.50;;;;;15.35;69.47;99668.22;5051887;28;9190;-73
2021/04/07 09:19:56;;;;;;;;;21.00;18.00;;;;;15.36;70.39;99661.47;5060640;28;9473;-71
2021/04/07 09:22:26;;;;;;;;;15.00;14.67;;;;;15.40;69.85;99662.25;5052914;28;9318;-74
2021/04/07 09:25:31;;;;;;;;;16.33;15.67;;;;;15.27;70.47;99679.31;5053737;28;9237;-72
2021/04/07 09:28:38;;;;;;;;;16.33;15.33;;;;;15.22;71.18;99676.88;5056023;28;10216;-73
2021/04/07 09:31:35;;;;;;;;;15.33;13.67;;;;;15.09;71.60;99670.00;5054926;28;9463;-73
2021/04/07 09:34:13;;;;;;;;;16.25;16.25;;;;;15.29;70.98;99659.41;5053491;28;9484;-73
2021/04/07 09:36:46;;;;;;;;;18.67;14.67;;;;;15.34;70.48;99656.28;5052693;28;9552;-73
2021/04/07 09:39:26;;;;;;;;;23.75;23.75;;;;;15.47;71.01;99665.09;5053285;28;9465;-72
2021/04/07 09:41:54;;;;;;;;;20.00;20.00;;;;;15.59;70.12;99670.34;5054392;28;9567;-72
2021/04/07 09:44:22;;;;;;;;;23.25;22.25;;;;;15.65;69.67;99666.03;5053952;28;9257;-72
2021/04/07 09:46:56;;;;;;;;;20.75;20.50;;;;;15.66;70.09;99664.84;5064066;28;9402;-71
2021/04/07 09:49:29;;;;;;;;;15.00;13.67;;;;;15.57;69.72;99661.59;5053735;28;9556;-73
2021/04/07 09:51:58;;;;;;;;;15.67;15.33;;;;;15.71;69.11;99663.66;5062930;28;9380;-74
2021/04/07 09:54:28;;;;;;;;;17.33;17.33;;;;;16.08;68.39;99660.66;5055729;28;9166;-73
2021/04/07 09:57:00;;;;;;;;;16.00;15.00;;;;;16.19;67.89;99660.72;5053044;28;9268;-72
2021/04/07 09:59:36;;;;;;;;;10.50;10.50;;;;;16.12;67.75;99662.28;5055154;28;9189;-72
2021/04/07 10:02:14;;;;;;;;;12.25;12.25;;;;;16.10;68.22;99670.25;5053156;28;8831;-73
2021/04/07 10:04:44;;;;;;;;;15.33;15.33;;;;;15.97;67.86;99671.78;5051549;28;8859;-73
2021/04/07 10:07:22;;;;;;;;;14.67;14.67;;;;;15.80;68.05;99684.44;5053949;28;9027;-73
2021/04/07 10:09:53;;;;;;;;;13.67;13.67;;;;;15.92;68.00;99685.28;5053786;28;8958;-73
2021/04/07 10:12:26;;;;;;;;;18.67;18.67;;;;;15.94;67.97;99705.19;5052377;28;9238;-72
2021/04/07 10:14:59;;;;;;;;;19.33;19.00;;;;;15.98;68.09;99703.25;5054681;28;9334;-73
2021/04/07 10:17:28;;;;;;;;;27.00;24.00;;;;;16.06;67.75;99693.72;5054732;28;9425;-73
2021/04/07 10:20:07;;;;;;;;;29.50;29.00;;;;;16.00;66.33;99696.06;5054835;28;9533;-73
2021/04/07 10:22:36;;;;;;;;;38.50;35.75;;;;;15.90;66.90;99693.25;5059183;28;9439;-72
2021/04/07 10:25:14;;;;;;;;;39.75;35.00;;;;;16.07;67.18;99712.84;5073803;28;9949;-74
2021/04/07 10:27:45;;;;;;;;;44.25;38.50;;;;;15.81;67.24;99704.75;5057142;28;10069;-73
2021/04/07 10:30:19;;;;;;;;;50.00;40.00;;;;;15.84;67.62;99704.75;5071830;28;10160;-73
2021/04/07 10:32:53;;;;;;;;;51.75;42.25;;;;;15.72;68.34;99721.00;5069589;28;10918;-72
2021/04/07 10:35:26;;;;;;;;;52.00;40.50;;;;;15.56;68.91;99718.50;5062076;28;10355;-73
2021/04/07 10:38:07;;;;;;;;;40.75;37.00;;;;;15.26;70.15;99722.28;5055165;28;10375;-73
2021/04/07 10:40:44;;;;;;;;;31.75;31.75;;;;;15.09;70.44;99727.69;5054459;28;10184;-72
2021/04/07 10:43:15;;;;;;;;;30.25;29.50;;;;;14.96;71.07;99739.13;5052976;28;9821;-72
2021/04/07 10:46:00;;;;;;;;;34.50;31.75;;;;;15.20;70.43;99740.53;5053035;28;9898;-73
2021/04/07 10:48:30;;;;;;;;;32.75;31.25;;;;;14.76;71.88;99746.06;5051415;28;9706;-73
2021/04/07 10:51:29;;;;;;;;;32.00;31.00;;;;;14.74;71.52;99752.03;5050399;28;10064;-72
2021/04/07 10:53:58;;;;;;;;;29.75;27.50;;;;;14.67;71.39;99751.16;5053625;28;10139;-73
2021/04/07 10:56:38;;;;;;;;;34.75;31.50;;;;;14.78;71.46;99759.59;5054379;28;9775;-74
2021/04/07 10:59:34;;;;;;;;;33.75;32.75;;;;;14.91;71.02;99758.94;5053835;28;10908;-73
2021/04/07 11:02:42;;;;;;;;;31.50;30.75;;;;;14.94;70.90;99752.59;5053431;28;10145;-74
2021/04/07 11:05:42;;;;;;;;;36.25;32.75;;;;;15.23;70.03;99750.88;5050974;28;10114;-72
2021/04/07 11:08:12;;;;;;;;;27.75;27.75;;;;;15.30;69.11;99747.38;5052750;28;10161;-72
2021/04/07 11:11:07;;;;;;;;;28.00;26.50;;;;;15.40;68.61;99760.56;5053940;28;9619;-73
2021/04/07 11:14:03;;;;;;;;;27.75;25.25;;;;;15.49;69.04;99765.84;5052761;28;10811;-73
2021/04/07 11:17:00;;;;;;;;;27.50;23.00;;;;;15.78;67.25;99767.63;5053659;28;9710;-73
2021/04/07 11:19:46;;;;;;;;;29.25;28.75;;;;;15.90;66.76;99774.91;5054192;28;9587;-73
2021/04/07 11:22:33;;;;;;;;;29.25;24.75;;;;;16.01;66.38;99772.16;5053561;28;9618;-73
2021/04/07 11:25:32;;;;;;;;;24.25;23.25;;;;;15.87;66.18;99778.44;5064945;28;9555;-74
2021/04/07 11:28:00;;;;;;;;;22.00;22.00;;;;;15.87;66.76;99784.03;5059689;28;9477;-73
2021/04/07 11:34:06;;;;;;;;;19.00;19.00;;;;;15.99;65.32;99797.66;5057439;28;9387;-74
2021/04/07 11:39:51;;;;;;;;;16.00;16.00;;;;;15.78;65.59;99798.31;5035997;28;9169;-73
2021/04/07 11:43:03;;;;;;;;;14.00;14.00;;;;;15.87;65.41;99802.75;5045847;28;9175;-73
2021/04/07 11:46:00;;;;;;;;;14.00;14.00;;;;;16.12;63.33;99800.94;5050207;28;9952;-72
2021/04/07 11:48:43;;;;;;;;;14.33;14.00;;;;;16.02;63.18;99807.22;5046171;28;8989;-72
2021/04/07 11:51:12;;;;;;;;;11.67;11.67;;;;;16.13;63.83;99802.53;5041552;28;9144;-73
2021/04/07 11:54:02;;;;;;;;;14.67;14.67;;;;;16.54;61.96;99811.50;5050317;28;9008;-72
2021/04/07 11:56:57;;;;;;;;;13.33;13.33;;;;;16.66;62.23;99813.94;5051683;28;9107;-73
2021/04/07 11:59:25;;;;;;;;;11.25;11.25;;;;;16.85;60.83;99823.19;5068022;28;9173;-71
2021/04/07 12:02:21;;;;;;;;;12.50;12.50;;;;;16.77;60.87;99818.78;5051791;28;8878;-72
2021/04/07 12:04:52;;;;;;;;;10.00;10.00;;;;;16.82;60.21;99818.41;5050634;28;8921;-72
2021/04/07 12:07:29;;;;;;;;;14.25;14.25;;;;;16.65;60.05;99823.50;5050125;28;8955;-71
2021/04/07 12:10:28;;;;;;;;;14.50;14.50;;;;;16.70;59.47;99821.53;5049800;28;8845;-71
2021/04/07 12:12:55;;;;;;;;;10.00;10.00;;;;;17.62;57.77;99830.09;5050001;28;10031;-71
2021/04/07 12:15:51;;;;;;;;;10.25;10.25;;;;;18.06;55.18;99832.50;5051525;28;8880;-72
2021/04/07 12:18:47;;;;;;;;;13.00;13.00;;;;;17.65;56.17;99834.13;5053615;28;8919;-72
2021/04/07 12:21:42;;;;;;;;;15.25;15.25;;;;;17.97;54.78;99823.72;5052855;28;8839;-72
2021/04/07 12:24:10;;;;;;;;;10.75;10.75;;;;;17.81;54.72;99814.97;5053412;28;8843;-72
2021/04/07 12:26:45;;;;;;;;;10.00;10.00;;;;;18.04;56.00;99804.13;5053111;28;8901;-73
2021/04/07 12:29:41;;;;;;;;;8.00;8.00;;;;;18.01;54.94;99818.09;5044535;28;8829;-72
2021/04/07 12:32:08;;;;;;;;;8.50;8.50;;;;;18.96;55.10;99821.81;5052474;28;8839;-72
2021/04/07 12:34:37;;;;;;;;;8.75;8.75;;;;;19.70;52.04;99819.69;5052355;28;8902;-72
2021/04/07 12:37:33;;;;;;;;;8.00;8.00;;;;;19.05;51.99;99830.56;5050347;28;9509;-73
2021/04/07 12:40:16;;;;;;;;;5.25;5.25;;;;;18.10;51.44;99835.31;5057327;28;8878;-74
2021/04/07 12:43:11;;;;;;;;;8.00;8.00;;;;;18.55;50.94;99822.34;5051498;28;8851;-74
2021/04/07 12:46:07;;;;;;;;;7.00;7.00;;;;;18.88;49.49;99823.84;5051981;28;8834;-73
2021/04/07 12:49:04;;;;;;;;;8.00;7.00;;;;;19.63;48.01;99830.97;5044926;28;8845;-72
2021/04/07 12:51:40;;;;;;;;;10.75;10.75;;;;;20.10;47.34;99834.97;5053177;28;8867;-71
2021/04/07 12:54:13;;;;;;;;;10.00;10.00;;;;;19.73;47.15;99835.72;5052760;28;8858;-75
2021/04/07 12:56:41;;;;;;;;;9.50;9.50;;;;;18.98;48.26;99825.00;5054051;28;8924;-73